createdAt,value
2018-08-19T00:01:04.184Z,23.40
2018-08-19T00:03:32.296Z,23.40
2018-08-19T00:05:59.972Z,23.30
2018-08-19T00:08:27.511Z,23.30
2018-08-19T00:11:01.143Z,23.30
2018-08-19T00:13:28.827Z,23.30
2018-08-19T00:15:56.400Z,23.30
2018-08-19T00:18:24.133Z,23.20
2018-08-19T00:20:51.764Z,23.20
2018-08-19T00:23:19.342Z,23.20
2018-08-19T00:25:46.911Z,23.10
2018-08-19T00:28:16.741Z,23.10
2018-08-19T00:30:44.343Z,23.10
2018-08-19T00:33:12.183Z,23.10
2018-08-19T00:35:39.765Z,23.00
2018-08-19T00:38:10.043Z,23.00
2018-08-19T00:40:38.200Z,23.00
2018-08-19T00:43:05.767Z,23.00
2018-08-19T00:45:33.509Z,23.00
2018-08-19T00:48:01.079Z,22.90
2018-08-19T00:50:28.703Z,22.90
2018-08-19T00:52:56.444Z,22.90
2018-08-19T00:55:24.615Z,22.90
2018-08-19T00:57:58.057Z,22.90
2018-08-19T01:00:26.553Z,22.90
2018-08-19T01:02:54.113Z,22.80
2018-08-19T01:05:21.711Z,22.90
2018-08-19T01:07:49.271Z,22.80
2018-08-19T01:10:16.871Z,22.80
2018-08-19T01:12:44.812Z,22.80
2018-08-19T01:15:14.686Z,22.80
2018-08-19T01:17:43.616Z,22.80
2018-08-19T01:20:17.417Z,22.80
2018-08-19T01:22:45.279Z,22.80
2018-08-19T01:25:13.339Z,22.80
2018-08-19T01:27:40.949Z,22.80
2018-08-19T01:30:18.676Z,22.80
2018-08-19T01:32:46.603Z,22.80
2018-08-19T01:35:14.411Z,22.80
2018-08-19T01:37:41.983Z,22.80
2018-08-19T01:40:12.681Z,22.80
2018-08-19T01:42:40.125Z,22.70
2018-08-19T01:45:08.798Z,22.70
2018-08-19T01:47:36.390Z,22.70
2018-08-19T01:50:12.479Z,22.70
2018-08-19T01:52:40.282Z,22.70
2018-08-19T01:55:08.242Z,22.70
2018-08-19T01:57:41.819Z,22.60
2018-08-19T02:00:10.535Z,22.60
2018-08-19T02:02:59.180Z,22.60
2018-08-19T02:05:26.935Z,22.60
2018-08-19T02:07:56.919Z,22.60
2018-08-19T02:10:25.411Z,22.50
2018-08-19T02:12:55.608Z,22.50
2018-08-19T02:15:24.278Z,22.50
2018-08-19T02:17:57.108Z,22.50
2018-08-19T02:20:35.175Z,22.50
2018-08-19T02:23:03.980Z,22.50
2018-08-19T02:25:45.978Z,22.50
2018-08-19T02:28:19.231Z,22.50
2018-08-19T02:30:51.828Z,22.50
2018-08-19T02:33:20.590Z,22.50
2018-08-19T02:35:51.148Z,22.50
2018-08-19T02:38:18.900Z,22.50
2018-08-19T02:40:50.624Z,22.50
2018-08-19T02:43:18.789Z,22.50
2018-08-19T02:45:46.385Z,22.50
2018-08-19T02:48:14.250Z,22.50
2018-08-19T02:50:41.838Z,22.40
2018-08-19T02:53:10.173Z,22.40
2018-08-19T02:55:37.765Z,22.40
2018-08-19T02:58:11.572Z,22.40
2018-08-19T03:00:40.503Z,22.40
2018-08-19T03:03:08.093Z,22.40
2018-08-19T03:05:36.456Z,22.40
2018-08-19T03:08:03.995Z,22.40
2018-08-19T03:10:31.590Z,22.40
2018-08-19T03:12:59.280Z,22.30
2018-08-19T03:15:26.880Z,22.30
2018-08-19T03:17:54.430Z,22.20
2018-08-19T03:20:22.411Z,22.20
2018-08-19T03:22:50.132Z,22.20
2018-08-19T03:27:45.452Z,22.10
2018-08-19T03:30:14.479Z,22.10
2018-08-19T03:32:49.145Z,22.10
2018-08-19T03:35:18.751Z,22.00
2018-08-19T03:37:46.682Z,22.00
2018-08-19T03:40:14.647Z,21.90
2018-08-19T03:42:42.281Z,21.90
2018-08-19T03:45:15.877Z,21.90
2018-08-19T03:47:43.513Z,21.90
2018-08-19T03:50:16.958Z,21.80
2018-08-19T03:52:44.876Z,21.80
2018-08-19T03:55:18.064Z,21.70
2018-08-19T03:57:46.147Z,21.70
2018-08-19T04:00:15.230Z,21.70
2018-08-19T04:02:43.651Z,21.60
2018-08-19T04:05:11.265Z,21.60
2018-08-19T04:07:38.807Z,21.60
2018-08-19T04:10:06.382Z,21.60
2018-08-19T04:12:33.924Z,21.50
2018-08-19T04:15:01.541Z,21.50
2018-08-19T04:17:29.225Z,21.50
2018-08-19T04:19:57.471Z,21.50
2018-08-19T04:22:25.261Z,21.50
2018-08-19T04:24:52.908Z,21.50
2018-08-19T04:27:20.477Z,21.50
2018-08-19T04:29:48.000Z,21.50
2018-08-19T04:32:24.223Z,21.50
2018-08-19T04:34:52.015Z,21.50
2018-08-19T04:37:19.860Z,21.50
2018-08-19T04:39:47.419Z,21.50
2018-08-19T04:42:15.003Z,21.50
2018-08-19T04:44:42.811Z,21.50
2018-08-19T04:47:27.117Z,21.60
2018-08-19T04:49:54.881Z,21.60
2018-08-19T04:52:23.654Z,21.60
2018-08-19T04:54:52.709Z,21.60
2018-08-19T04:57:20.536Z,21.60
2018-08-19T04:59:48.272Z,21.60
2018-08-19T05:02:16.330Z,21.60
2018-08-19T05:04:43.814Z,21.70
2018-08-19T05:07:11.597Z,21.70
2018-08-19T05:09:39.472Z,21.80
2018-08-19T05:12:07.009Z,21.90
2018-08-19T05:14:34.921Z,21.90
2018-08-19T05:17:02.624Z,22.00
2018-08-19T05:19:30.018Z,22.10
2018-08-19T05:22:04.158Z,22.10
2018-08-19T05:24:32.229Z,22.20
2018-08-19T05:27:06.864Z,22.30
2018-08-19T05:29:34.635Z,22.40
2018-08-19T05:32:02.215Z,22.50
2018-08-19T05:34:29.941Z,22.60
2018-08-19T05:36:57.645Z,22.70
2018-08-19T05:39:25.313Z,22.80
2018-08-19T05:42:08.953Z,22.90
2018-08-19T05:44:37.523Z,23.00
2018-08-19T05:47:15.269Z,23.10
2018-08-19T05:49:44.031Z,23.10
2018-08-19T05:52:15.531Z,23.20
2018-08-19T05:54:47.961Z,23.20
2018-08-19T05:57:15.614Z,23.30
2018-08-19T05:59:43.340Z,23.40
2018-08-19T06:02:10.899Z,23.40
2018-08-19T06:04:38.700Z,23.50
2018-08-19T06:07:06.268Z,23.60
2018-08-19T06:09:34.772Z,23.70
2018-08-19T06:12:03.391Z,23.90
2018-08-19T06:14:31.864Z,24.10
2018-08-19T06:17:00.856Z,24.40
2018-08-19T06:19:28.414Z,24.60
2018-08-19T06:21:56.009Z,24.90
2018-08-19T06:24:25.076Z,25.30
2018-08-19T06:26:52.623Z,25.60
2018-08-19T06:29:21.005Z,25.90
2018-08-19T06:31:48.705Z,26.30
2018-08-19T06:34:16.523Z,26.70
2018-08-19T06:36:44.089Z,27.00
2018-08-19T06:39:12.020Z,27.40
2018-08-19T06:41:40.180Z,27.70
2018-08-19T06:44:07.943Z,28.10
2018-08-19T06:46:35.759Z,28.40
2018-08-19T06:49:07.559Z,28.80
2018-08-19T06:51:35.193Z,29.10
2018-08-19T06:54:02.800Z,29.40
2018-08-19T06:56:30.753Z,29.80
2018-08-19T06:58:58.851Z,30.10
2018-08-19T07:01:26.503Z,30.40
2018-08-19T07:03:55.679Z,30.70
2018-08-19T07:06:23.232Z,31.00
2018-08-19T07:08:50.847Z,31.30
2018-08-19T07:11:18.989Z,31.60
2018-08-19T07:13:48.006Z,31.90
2018-08-19T07:16:17.650Z,32.20
2018-08-19T07:18:45.467Z,32.40
2018-08-19T07:21:12.899Z,32.60
2018-08-19T07:23:40.480Z,32.70
2018-08-19T07:26:08.156Z,32.80
2018-08-19T07:28:35.806Z,32.80
2018-08-19T07:31:03.435Z,32.70
2018-08-19T07:33:31.396Z,32.70
2018-08-19T07:35:58.908Z,32.60
2018-08-19T07:38:27.223Z,32.60
2018-08-19T07:40:54.827Z,32.70
2018-08-19T07:43:22.371Z,32.80
2018-08-19T07:46:13.050Z,32.90
2018-08-19T07:49:18.796Z,33.10
2018-08-19T07:52:08.537Z,33.40
2018-08-19T07:54:36.421Z,33.70
2018-08-19T07:57:12.259Z,34.10
2018-08-19T07:59:40.784Z,34.40
2018-08-19T08:02:08.926Z,34.80
2018-08-19T08:04:40.047Z,35.20
2018-08-19T08:07:07.860Z,35.50
2018-08-19T08:09:35.396Z,35.90
2018-08-19T08:12:02.994Z,36.20
2018-08-19T08:14:31.303Z,36.50
2018-08-19T08:16:58.930Z,36.80
2018-08-19T08:19:26.507Z,37.10
2018-08-19T08:22:02.141Z,37.40
2018-08-19T08:24:30.261Z,37.70
2018-08-19T08:26:57.856Z,37.90
2018-08-19T08:29:25.954Z,38.20
2018-08-19T08:31:56.617Z,38.40
2018-08-19T08:34:26.494Z,38.70
2018-08-19T08:37:00.480Z,38.90
2018-08-19T08:39:28.765Z,39.20
2018-08-19T08:41:57.073Z,39.40
2018-08-19T08:44:26.192Z,39.50
2018-08-19T08:46:54.186Z,39.80
2018-08-19T08:49:22.126Z,40.00
2018-08-19T08:51:50.157Z,40.30
2018-08-19T08:54:18.141Z,40.50
2018-08-19T08:56:45.801Z,40.70
2018-08-19T08:59:15.555Z,40.90
2018-08-19T09:01:43.260Z,41.00
2018-08-19T09:04:12.728Z,41.10
2018-08-19T09:06:48.241Z,41.30
2018-08-19T09:09:15.991Z,41.40
2018-08-19T09:11:45.803Z,41.50
2018-08-19T09:14:13.455Z,41.50
2018-08-19T09:16:42.041Z,41.50
2018-08-19T09:19:10.234Z,41.60
2018-08-19T09:21:38.802Z,41.60
2018-08-19T09:24:06.410Z,41.70
2018-08-19T09:26:34.757Z,41.70
2018-08-19T09:29:02.348Z,41.80
2018-08-19T09:31:29.944Z,41.80
2018-08-19T09:33:59.432Z,41.90
2018-08-19T09:36:28.147Z,42.00
2018-08-19T09:38:55.693Z,42.00
2018-08-19T09:41:24.419Z,42.10
2018-08-19T09:43:52.067Z,42.10
2018-08-19T09:46:57.321Z,42.10
2018-08-19T09:49:35.284Z,42.10
2018-08-19T09:52:41.076Z,42.10
2018-08-19T09:55:47.854Z,42.10
2018-08-19T09:58:19.584Z,42.10
2018-08-19T10:00:52.887Z,42.20
2018-08-19T10:03:20.539Z,42.20
2018-08-19T10:05:47.672Z,42.30
2018-08-19T10:08:15.247Z,42.40
2018-08-19T10:10:42.837Z,42.60
2018-08-19T10:13:10.463Z,42.80
2018-08-19T10:15:38.051Z,42.90
2018-08-19T10:18:08.616Z,43.10
2018-08-19T10:20:36.685Z,43.30
2018-08-19T10:23:04.580Z,43.50
2018-08-19T10:25:32.411Z,43.70
2018-08-19T10:27:59.959Z,43.80
2018-08-19T10:30:27.470Z,43.80
2018-08-19T10:33:04.261Z,43.80
2018-08-19T10:35:32.664Z,43.90
2018-08-19T10:38:01.074Z,43.90
2018-08-19T10:40:29.002Z,43.90
2018-08-19T10:43:00.872Z,43.90
2018-08-19T10:45:28.396Z,43.90
2018-08-19T10:47:56.104Z,43.90
2018-08-19T10:50:25.412Z,43.90
2018-08-19T10:52:53.055Z,43.90
2018-08-19T10:55:20.905Z,44.00
2018-08-19T10:57:48.487Z,44.10
2018-08-19T11:00:20.919Z,44.10
2018-08-19T11:02:48.469Z,44.10
2018-08-19T11:05:15.995Z,44.20
2018-08-19T11:07:43.756Z,44.30
2018-08-19T11:10:17.275Z,44.30
2018-08-19T11:12:47.102Z,44.40
2018-08-19T11:15:31.606Z,44.40
2018-08-19T11:19:10.674Z,44.60
2018-08-19T11:21:38.200Z,44.70
2018-08-19T11:24:16.587Z,44.80
2018-08-19T11:26:45.552Z,44.90
2018-08-19T11:29:13.144Z,45.00
2018-08-19T11:31:43.300Z,45.10
2018-08-19T11:34:10.857Z,45.10
2018-08-19T11:36:42.329Z,45.20
2018-08-19T11:39:12.291Z,45.20
2018-08-19T11:41:39.888Z,45.20
2018-08-19T11:44:14.038Z,45.20
2018-08-19T11:46:41.647Z,45.20
2018-08-19T11:49:10.701Z,45.20
2018-08-19T11:51:54.614Z,45.10
2018-08-19T11:54:23.024Z,45.10
2018-08-19T11:56:58.255Z,45.00
2018-08-19T11:59:31.555Z,44.80
2018-08-19T12:01:59.627Z,44.70
2018-08-19T12:04:27.169Z,44.60
2018-08-19T12:06:54.723Z,44.50
2018-08-19T12:09:23.242Z,44.50
2018-08-19T12:11:50.847Z,44.30
2018-08-19T12:14:18.439Z,44.30
2018-08-19T12:16:52.144Z,44.30
2018-08-19T12:19:21.136Z,44.20
2018-08-19T12:21:58.010Z,44.20
2018-08-19T12:24:37.920Z,44.00
2018-08-19T12:27:07.866Z,44.00
2018-08-19T12:29:37.633Z,43.90
2018-08-19T12:32:13.035Z,43.80
2018-08-19T12:34:45.113Z,43.80
2018-08-19T12:37:13.936Z,43.70
2018-08-19T12:39:41.485Z,43.70
2018-08-19T12:42:37.057Z,43.60
2018-08-19T12:45:06.365Z,43.60
2018-08-19T12:47:35.884Z,43.50
2018-08-19T12:50:09.124Z,43.40
2018-08-19T12:52:38.951Z,43.20
2018-08-19T12:55:08.932Z,43.00
2018-08-19T12:57:37.756Z,42.80
2018-08-19T13:00:17.093Z,42.50
2018-08-19T13:02:47.889Z,42.40
2018-08-19T13:05:16.340Z,42.20
2018-08-19T13:07:45.543Z,41.90
2018-08-19T13:10:13.904Z,41.60
2018-08-19T13:12:47.601Z,41.40
2018-08-19T13:15:15.672Z,41.10
2018-08-19T13:17:44.644Z,40.90
2018-08-19T13:20:12.749Z,40.70
2018-08-19T13:22:55.500Z,40.60
2018-08-19T13:25:24.198Z,40.40
2018-08-19T13:27:52.664Z,40.20
2018-08-19T13:30:20.839Z,40.10
2018-08-19T13:32:49.567Z,40.00
2018-08-19T13:35:17.887Z,39.80
2018-08-19T13:37:45.566Z,39.70
2018-08-19T13:40:13.891Z,39.60
2018-08-19T13:42:43.224Z,39.50
2018-08-19T13:45:16.515Z,39.40
2018-08-19T13:47:47.198Z,39.30
2018-08-19T13:50:14.950Z,39.30
2018-08-19T13:52:44.973Z,39.20
2018-08-19T13:55:16.368Z,39.20
2018-08-19T13:57:44.935Z,39.10
2018-08-19T14:00:18.822Z,39.10
2018-08-19T14:02:47.011Z,39.10
2018-08-19T14:05:14.655Z,39.10
2018-08-19T14:07:42.981Z,39.10
2018-08-19T14:10:12.169Z,39.00
2018-08-19T14:12:39.475Z,39.00
2018-08-19T14:15:07.095Z,38.80
2018-08-19T14:17:35.148Z,38.80
2018-08-19T14:20:03.906Z,38.70
2018-08-19T14:22:31.674Z,38.70
2018-08-19T14:24:59.382Z,38.60
2018-08-19T14:27:27.899Z,38.60
2018-08-19T14:29:55.605Z,38.50
2018-08-19T14:33:03.829Z,38.50
2018-08-19T14:35:48.143Z,38.40
2018-08-19T14:38:44.722Z,38.40
2018-08-19T14:41:50.783Z,38.40
2018-08-19T14:44:56.755Z,38.40
2018-08-19T14:47:24.772Z,38.30
2018-08-19T14:49:53.039Z,38.30
2018-08-19T14:52:20.549Z,38.20
2018-08-19T14:54:48.337Z,38.20
2018-08-19T14:57:16.491Z,38.10
2018-08-19T14:59:44.097Z,38.00
2018-08-19T15:02:11.712Z,38.00
2018-08-19T15:04:43.104Z,37.90
2018-08-19T15:07:10.648Z,37.90
2018-08-19T15:09:38.457Z,37.80
2018-08-19T15:12:15.771Z,37.70
2018-08-19T15:14:43.412Z,37.60
2018-08-19T15:17:11.300Z,37.60
2018-08-19T15:19:46.246Z,37.50
2018-08-19T15:22:13.992Z,37.50
2018-08-19T15:24:41.729Z,37.40
2018-08-19T15:27:09.311Z,37.30
2018-08-19T15:29:40.553Z,37.20
2018-08-19T15:32:09.946Z,37.10
2018-08-19T15:34:38.732Z,37.00
2018-08-19T15:37:06.732Z,36.90
2018-08-19T15:39:35.622Z,36.80
2018-08-19T15:42:04.697Z,36.80
2018-08-19T15:44:33.680Z,36.70
2018-08-19T15:47:02.708Z,36.70
2018-08-19T15:49:31.613Z,36.60
2018-08-19T15:51:59.747Z,36.60
2018-08-19T15:54:29.752Z,36.50
2018-08-19T15:57:02.665Z,36.40
2018-08-19T15:59:34.712Z,36.40
2018-08-19T16:02:02.806Z,36.30
2018-08-19T16:04:31.801Z,36.20
2018-08-19T16:07:01.912Z,36.20
2018-08-19T16:09:30.670Z,36.10
2018-08-19T16:11:58.909Z,36.10
2018-08-19T16:14:31.341Z,36.00
2018-08-19T16:17:02.043Z,36.00
2018-08-19T16:19:30.615Z,36.00
2018-08-19T16:21:59.057Z,35.90
2018-08-19T16:24:26.998Z,35.90
2018-08-19T16:26:54.532Z,35.90
2018-08-19T16:29:22.047Z,35.90
2018-08-19T16:31:50.055Z,35.80
2018-08-19T16:34:17.561Z,35.80
2018-08-19T16:39:21.481Z,35.80
2018-08-19T16:41:49.001Z,35.70
2018-08-19T16:44:16.564Z,35.70
2018-08-19T16:46:44.213Z,35.70
2018-08-19T16:49:11.803Z,35.60
2018-08-19T16:51:39.368Z,35.60
2018-08-19T16:54:07.678Z,35.60
2018-08-19T16:56:35.211Z,35.60
2018-08-19T16:59:02.764Z,35.60
2018-08-19T17:01:30.471Z,35.60
2018-08-19T17:03:58.006Z,35.50
2018-08-19T17:06:25.689Z,35.50
2018-08-19T17:08:53.435Z,35.50
2018-08-19T17:11:21.016Z,35.40
2018-08-19T17:13:48.710Z,35.40
2018-08-19T17:16:16.764Z,35.40
2018-08-19T17:18:44.479Z,35.30
2018-08-19T17:21:12.298Z,35.30
2018-08-19T17:23:39.906Z,35.30
2018-08-19T17:26:15.600Z,35.20
2018-08-19T17:28:43.087Z,35.10
2018-08-19T17:31:11.159Z,35.10
2018-08-19T17:33:58.479Z,35.10
2018-08-19T17:37:03.685Z,35.00
2018-08-19T17:40:09.879Z,34.90
2018-08-19T17:42:39.380Z,34.90
2018-08-19T17:45:45.584Z,34.70
2018-08-19T17:48:14.050Z,34.60
2018-08-19T17:50:41.909Z,34.60
2018-08-19T17:53:09.460Z,34.40
2018-08-19T17:55:37.604Z,34.30
2018-08-19T17:58:05.909Z,34.30
2018-08-19T18:00:33.484Z,34.20
2018-08-19T18:03:01.888Z,34.10
2018-08-19T18:05:30.182Z,34.00
2018-08-19T18:07:57.795Z,33.90
2018-08-19T18:10:25.980Z,33.90
2018-08-19T18:12:53.556Z,33.80
2018-08-19T18:15:21.174Z,33.70
2018-08-19T18:17:58.937Z,33.60
2018-08-19T18:20:36.528Z,33.60
2018-08-19T18:23:14.436Z,33.50
2018-08-19T18:25:46.565Z,33.40
2018-08-19T18:28:22.101Z,33.30
2018-08-19T18:31:08.071Z,33.20
2018-08-19T18:34:06.260Z,33.10
2018-08-19T18:36:34.785Z,33.00
2018-08-19T18:39:10.039Z,33.00
2018-08-19T18:42:11.220Z,32.80
2018-08-19T18:44:47.881Z,32.80
2018-08-19T18:48:02.829Z,32.60
2018-08-19T18:51:08.478Z,32.50
2018-08-19T18:53:36.856Z,32.40
2018-08-19T18:56:04.434Z,32.30
2018-08-19T18:58:33.440Z,32.10
2018-08-19T19:01:01.443Z,32.00
2018-08-19T19:03:29.446Z,31.90
2018-08-19T19:05:58.157Z,31.80
2018-08-19T19:08:28.564Z,31.80
2018-08-19T19:11:02.188Z,31.60
2018-08-19T19:13:30.242Z,31.60
2018-08-19T19:15:58.744Z,31.40
2018-08-19T19:18:26.930Z,31.40
2018-08-19T19:21:01.461Z,31.30
2018-08-19T19:23:31.542Z,31.20
2018-08-19T19:26:00.789Z,31.10
2018-08-19T19:28:29.720Z,31.00
2018-08-19T19:31:06.540Z,30.90
2018-08-19T19:33:34.573Z,30.80
2018-08-19T19:36:09.553Z,30.70
2018-08-19T19:38:48.248Z,30.70
2018-08-19T19:41:20.494Z,30.60
2018-08-19T19:43:48.984Z,30.50
2018-08-19T19:46:17.829Z,30.40
2018-08-19T19:48:45.904Z,30.30
2018-08-19T19:51:14.048Z,30.20
2018-08-19T19:53:43.081Z,30.10
2018-08-19T19:56:17.136Z,30.10
2018-08-19T19:58:46.930Z,30.00
2018-08-19T20:01:15.036Z,29.90
2018-08-19T20:03:53.853Z,29.90
2018-08-19T20:06:21.820Z,29.80
2018-08-19T20:08:53.088Z,29.70
2018-08-19T20:11:28.403Z,29.60
2018-08-19T20:14:00.419Z,29.60
2018-08-19T20:16:28.713Z,29.50
2018-08-19T20:18:56.698Z,29.40
2018-08-19T20:21:25.719Z,29.40
2018-08-19T20:23:55.507Z,29.30
2018-08-19T20:26:23.949Z,29.20
2018-08-19T20:28:58.807Z,29.10
2018-08-19T20:31:42.075Z,29.10
2018-08-19T20:34:09.855Z,29.00
2018-08-19T20:36:38.065Z,29.00
2018-08-19T20:39:33.723Z,28.90
2018-08-19T20:42:26.008Z,28.80
2018-08-19T20:49:59.716Z,28.70
2018-08-19T20:52:42.793Z,28.60
2018-08-19T20:55:11.462Z,28.50
2018-08-19T20:57:39.371Z,28.40
2018-08-19T21:00:08.080Z,28.40
2018-08-19T21:02:36.018Z,28.40
2018-08-19T21:05:04.802Z,28.30
2018-08-19T21:07:32.607Z,28.20
2018-08-19T21:10:00.363Z,28.20
2018-08-19T21:12:27.921Z,28.10
2018-08-19T21:14:56.058Z,28.00
2018-08-19T21:17:24.365Z,28.00
2018-08-19T21:19:52.620Z,27.90
2018-08-19T21:22:21.134Z,27.80
2018-08-19T21:24:49.232Z,27.80
2018-08-19T21:27:17.677Z,27.70
2018-08-19T21:29:45.788Z,27.70
2018-08-19T21:32:13.568Z,27.70
2018-08-19T21:34:41.500Z,27.60
2018-08-19T21:37:09.484Z,27.60
2018-08-19T21:39:37.041Z,27.50
2018-08-19T21:42:04.864Z,27.50
2018-08-19T21:44:32.785Z,27.40
2018-08-19T21:47:08.093Z,27.40
2018-08-19T21:49:35.758Z,27.30
2018-08-19T21:52:03.377Z,27.30
2018-08-19T21:54:30.923Z,27.30
2018-08-19T21:56:58.517Z,27.20
2018-08-19T21:59:26.066Z,27.20
2018-08-19T22:01:57.556Z,27.20
2018-08-19T22:04:25.666Z,27.10
2018-08-19T22:06:53.190Z,27.10
2018-08-19T22:09:29.048Z,27.00
2018-08-19T22:11:57.673Z,27.00
2018-08-19T22:14:25.281Z,26.90
2018-08-19T22:16:59.112Z,26.90
2018-08-19T22:19:26.754Z,26.80
2018-08-19T22:21:54.328Z,26.80
2018-08-19T22:24:22.442Z,26.80
2018-08-19T22:26:50.040Z,26.70
2018-08-19T22:29:20.795Z,26.70
2018-08-19T22:31:50.356Z,26.70
2018-08-19T22:34:18.311Z,26.60
2018-08-19T22:36:46.199Z,26.60
2018-08-19T22:39:18.555Z,26.50
2018-08-19T22:41:48.728Z,26.50
2018-08-19T22:44:16.724Z,26.50
2018-08-19T22:46:44.731Z,26.50
2018-08-19T22:49:13.048Z,26.50
2018-08-19T22:51:40.695Z,26.40
2018-08-19T22:54:08.672Z,26.40
2018-08-19T22:56:36.228Z,26.40
2018-08-19T22:59:03.889Z,26.30
2018-08-19T23:01:48.426Z,26.30
2018-08-19T23:04:16.029Z,26.30
2018-08-19T23:06:43.621Z,26.20
2018-08-19T23:09:39.411Z,26.20
2018-08-19T23:12:16.117Z,26.20
2018-08-19T23:15:16.864Z,26.20
2018-08-19T23:17:44.440Z,26.20
2018-08-19T23:20:51.175Z,26.10
2018-08-19T23:23:48.607Z,26.00
2018-08-19T23:26:20.583Z,26.00
2018-08-19T23:29:09.609Z,26.00
2018-08-19T23:31:37.248Z,25.90
2018-08-19T23:34:43.170Z,25.90
2018-08-19T23:37:11.003Z,25.80
2018-08-19T23:39:38.577Z,25.80
2018-08-19T23:42:06.173Z,25.80
2018-08-19T23:44:33.939Z,25.70
2018-08-19T23:47:01.797Z,25.70
2018-08-19T23:49:29.342Z,25.70
2018-08-19T23:51:56.935Z,25.70
2018-08-19T23:54:24.784Z,25.70
2018-08-19T23:56:52.356Z,25.70
2018-08-19T23:59:26.028Z,25.70
